Time;durP1;ratioP1;P1;durP2;ratioP2;P2;SDS_P1;SDS_P2;PMS_P1;PMS_P2;Temp;Humidity;BMP_temperature;BMP_pressure;BME280_temperature;BME280_humidity;BME280_pressure;Samples;Min_cycle;Max_cycle;Signal;HPM_P1;HPM_P2
2024/03/19 00:00:57;;;;;;;;;;;;;;;;;;5012194;28;20381;-79
2024/03/19 00:03:23;;;;;;;;;;;;;;;;;;4991239;28;19974;-79
2024/03/19 00:05:48;;;;;;;;;;;;;;;;;;4991516;28;19917;-80
2024/03/19 00:08:13;;;;;;;;;;;;;;;;;;5011886;28;19971;-80
2024/03/19 00:10:39;;;;;;;;;;;;;;;;;;5013498;28;19928;-80
2024/03/19 00:13:04;;;;;;;;;;;;;;;;;;4981041;28;20439;-80
2024/03/19 00:15:29;;;;;;;;;;;;;;;;;;4987958;28;19939;-80
2024/03/19 00:17:54;;;;;;;;;;;;;;;;;;4989539;28;19925;-79
2024/03/19 00:20:21;;;;;;;;;;;;;;;;;;4987759;28;19918;-79
2024/03/19 00:22:46;;;;;;;;;;;;;;;;;;4987546;28;19933;-80
2024/03/19 00:25:12;;;;;;;;;;;;;;;;;;4988481;28;19918;-80
2024/03/19 00:27:38;;;;;;;;;;;;;;;;;;4988346;28;19917;-80
2024/03/19 00:30:03;;;;;;;;;;;;;;;;;;4987743;28;20011;-80
2024/03/19 00:32:29;;;;;;;;;;;;;;;;;;4976870;28;20396;-79
2024/03/19 00:34:54;;;;;;;;;;;;;;;;;;4986706;28;19944;-80
2024/03/19 00:37:19;;;;;;;;;;;;;;;;;;4977940;28;19925;-79
2024/03/19 00:39:45;;;;;;;;;;;;;;;;;;4972292;28;19925;-78
2024/03/19 00:42:10;;;;;;;;;;;;;;;;;;4970851;28;19921;-79
2024/03/19 00:44:35;;;;;;;;;;;;;;;;;;4987126;28;19918;-80
2024/03/19 00:47:00;;;;;;;;;;;;;;;;;;4978055;28;19918;-80
2024/03/19 00:49:29;;;;;;;;;;;;;;;;;;4974244;28;20363;-80
2024/03/19 00:51:54;;;;;;;;;;;;;;;;;;4990536;28;19968;-78
2024/03/19 00:54:20;;;;;;;;;;;;;;;;;;4987504;28;20353;-80
2024/03/19 00:56:45;;;;;;;;;;;;;;;;;;4977357;28;19924;-77
2024/03/19 00:59:11;;;;;;;;;;;;;;;;;;4976396;28;19924;-79
2024/03/19 01:01:37;;;;;;;;;;;;;;;;;;4976944;28;19918;-79
2024/03/19 01:04:05;;;;;;;;;;;;;;;;;;4988681;28;19922;-78
2024/03/19 01:06:30;;;;;;;;;;;;;;;;;;4976513;28;19921;-79
2024/03/19 01:08:55;;;;;;;;;;;;;;;;;;4987737;28;19936;-79
2024/03/19 01:11:20;;;;;;;;;;;;;;;;;;4973839;28;19917;-79
2024/03/19 01:13:46;;;;;;;;;;;;;;;;;;5002629;28;20406;-77
2024/03/19 01:16:11;;;;;;;;;;;;;;;;;;4993911;28;20348;-79
2024/03/19 01:18:37;;;;;;;;;;;;;;;;;;5012284;28;19917;-80
2024/03/19 01:21:02;;;;;;;;;;;;;;;;;;4995893;28;21403;-79
2024/03/19 01:23:27;;;;;;;;;;;;;;;;;;4995569;28;20000;-78
2024/03/19 01:25:52;;;;;;;;;;;;;;;;;;4972870;28;20066;-80
2024/03/19 01:28:18;;;;;;;;;;;;;;;;;;4989555;28;20100;-79
2024/03/19 01:30:43;;;;;;;;;;;;;;;;;;5009637;28;19967;-80
2024/03/19 01:33:08;;;;;;;;;;;;;;;;;;5010265;28;20015;-77
2024/03/19 01:35:34;;;;;;;;;;;;;;;;;;5010221;28;19969;-80
2024/03/19 01:37:59;;;;;;;;;;;;;;;;;;5011524;28;20471;-79
2024/03/19 01:40:25;;;;;;;;;;;;;;;;;;4989109;28;19925;-80
2024/03/19 01:42:50;;;;;;;;;;;;;;;;;;5010457;28;20553;-80
2024/03/19 01:45:15;;;;;;;;;;;;;;;;;;4972546;28;19913;-78
2024/03/19 01:47:44;;;;;;;;;;;;;;;;;;5009329;28;19921;-81
2024/03/19 01:50:09;;;;;;;;;;;;;;;;;;5012123;28;19917;-80
2024/03/19 01:52:34;;;;;;;;;;;;;;;;;;4997497;28;19929;-78
2024/03/19 01:55:00;;;;;;;;;;;;;;;;;;4987626;28;20001;-77
2024/03/19 01:57:26;;;;;;;;;;;;;;;;;;4996043;28;19924;-79
2024/03/19 01:59:51;;;;;;;;;;;;;;;;;;4990616;28;19927;-78
2024/03/19 02:02:16;;;;;;;;;;;;;;;;;;4985569;28;19917;-78
2024/03/19 02:04:41;;;;;;;;;;;;;;;;;;5021244;28;20207;-79
2024/03/19 02:07:07;;;;;;;;;;;;;;;;;;5013867;28;20457;-79
2024/03/19 02:09:32;;;;;;;;;;;;;;;;;;5020853;28;19936;-78
2024/03/19 02:11:57;;;;;;;;;;;;;;;;;;5016866;28;20391;-78
2024/03/19 02:14:25;;;;;;;;;;;;;;;;;;5018745;28;20380;-78
2024/03/19 02:16:50;;;;;;;;;;;;;;;;;;4997225;28;19917;-79
2024/03/19 02:19:16;;;;;;;;;;;;;;;;;;4999286;28;19917;-79
2024/03/19 02:21:41;;;;;;;;;;;;;;;;;;5010583;28;19917;-79
2024/03/19 02:24:06;;;;;;;;;;;;;;;;;;5008425;28;20331;-78
2024/03/19 02:26:32;;;;;;;;;;;;;;;;;;4972479;28;20041;-78
2024/03/19 02:28:57;;;;;;;;;;;;;;;;;;5009956;28;20356;-78
2024/03/19 02:31:24;;;;;;;;;;;;;;;;;;4973419;28;19925;-78
2024/03/19 02:33:49;;;;;;;;;;;;;;;;;;5010990;28;19975;-79
2024/03/19 02:36:15;;;;;;;;;;;;;;;;;;5008575;28;19918;-80
2024/03/19 02:38:40;;;;;;;;;;;;;;;;;;5011464;28;19986;-79
2024/03/19 02:41:06;;;;;;;;;;;;;;;;;;5011110;28;19921;-79
2024/03/19 02:43:31;;;;;;;;;;;;;;;;;;4989644;28;19984;-80
2024/03/19 02:45:56;;;;;;;;;;;;;;;;;;4980355;28;20871;-77
2024/03/19 02:48:22;;;;;;;;;;;;;;;;;;5011024;28;19928;-78
2024/03/19 02:50:47;;;;;;;;;;;;;;;;;;4990051;28;19921;-78
2024/03/19 02:53:12;;;;;;;;;;;;;;;;;;5012828;28;19928;-78
2024/03/19 02:55:37;;;;;;;;;;;;;;;;;;4992362;28;19935;-78
2024/03/19 02:58:03;;;;;;;;;;;;;;;;;;5011855;28;20589;-79
2024/03/19 03:00:28;;;;;;;;;;;;;;;;;;4991323;28;19921;-79
2024/03/19 03:02:54;;;;;;;;;;;;;;;;;;4994199;28;19945;-79
2024/03/19 03:05:21;;;;;;;;;;;;;;;;;;4994290;28;19917;-79
2024/03/19 03:07:47;;;;;;;;;;;;;;;;;;4991410;28;20403;-80
2024/03/19 03:10:12;;;;;;;;;;;;;;;;;;4993899;28;20003;-79
2024/03/19 03:12:37;;;;;;;;;;;;;;;;;;4994866;28;19929;-80
2024/03/19 03:15:04;;;;;;;;;;;;;;;;;;5012603;28;20443;-80
2024/03/19 03:20:47;;;;;;;;;;;;;;;;;;5012454;28;20056;-80
2024/03/19 03:23:13;;;;;;;;;;;;;;;;;;5013208;28;20269;-79
2024/03/19 03:25:39;;;;;;;;;;;;;;;;;;4982014;28;19921;-78
2024/03/19 03:28:04;;;;;;;;;;;;;;;;;;5014506;28;20305;-80
2024/03/19 03:30:30;;;;;;;;;;;;;;;;;;4993243;28;19921;-79
2024/03/19 03:32:56;;;;;;;;;;;;;;;;;;4994524;28;19917;-79
2024/03/19 03:35:22;;;;;;;;;;;;;;;;;;4993609;28;19971;-78
2024/03/19 03:37:47;;;;;;;;;;;;;;;;;;5013741;28;19928;-80
2024/03/19 03:40:23;;;;;;;;;;;;;;;;;;4976914;28;19921;-80
2024/03/19 03:42:49;;;;;;;;;;;;;;;;;;4992045;28;20459;-81
2024/03/19 03:45:14;;;;;;;;;;;;;;;;;;4991986;28;19928;-79
2024/03/19 03:47:39;;;;;;;;;;;;;;;;;;5010918;28;19925;-79
2024/03/19 03:50:05;;;;;;;;;;;;;;;;;;4996912;28;20021;-79
2024/03/19 03:52:32;;;;;;;;;;;;;;;;;;5011864;28;20360;-79
2024/03/19 03:54:58;;;;;;;;;;;;;;;;;;5012486;28;19957;-79
2024/03/19 03:57:23;;;;;;;;;;;;;;;;;;4996120;28;20011;-80
2024/03/19 03:59:48;;;;;;;;;;;;;;;;;;5011011;28;19921;-79
2024/03/19 04:02:23;;;;;;;;;;;;;;;;;;4990851;28;19927;-78
2024/03/19 04:04:48;;;;;;;;;;;;;;;;;;4991112;28;20356;-78
2024/03/19 04:07:13;;;;;;;;;;;;;;;;;;5015128;28;20059;-78
2024/03/19 04:09:39;;;;;;;;;;;;;;;;;;5012467;28;19925;-79
2024/03/19 04:12:04;;;;;;;;;;;;;;;;;;5012715;28;19958;-78
2024/03/19 04:14:30;;;;;;;;;;;;;;;;;;5012546;28;20011;-79
2024/03/19 04:16:55;;;;;;;;;;;;;;;;;;4990113;28;19957;-79
2024/03/19 04:19:20;;;;;;;;;;;;;;;;;;4991664;28;20077;-79
2024/03/19 04:21:46;;;;;;;;;;;;;;;;;;5012461;28;20300;-79
2024/03/19 04:24:12;;;;;;;;;;;;;;;;;;5011646;28;19917;-80
2024/03/19 04:26:38;;;;;;;;;;;;;;;;;;5010883;28;19918;-80
2024/03/19 04:29:03;;;;;;;;;;;;;;;;;;4995700;28;20016;-79
2024/03/19 04:31:28;;;;;;;;;;;;;;;;;;4990429;28;19917;-79
2024/03/19 04:33:54;;;;;;;;;;;;;;;;;;4989438;28;20579;-79
2024/03/19 04:36:19;;;;;;;;;;;;;;;;;;5012147;28;19921;-80
2024/03/19 04:38:44;;;;;;;;;;;;;;;;;;5012830;28;20328;-78
2024/03/19 04:41:09;;;;;;;;;;;;;;;;;;4988724;28;21221;-81
2024/03/19 04:43:35;;;;;;;;;;;;;;;;;;5012735;28;19924;-79
2024/03/19 04:46:00;;;;;;;;;;;;;;;;;;4995587;28;21516;-80
2024/03/19 04:48:25;;;;;;;;;;;;;;;;;;5010678;28;20190;-80
2024/03/19 04:50:50;;;;;;;;;;;;;;;;;;4995586;28;19924;-79
2024/03/19 04:53:16;;;;;;;;;;;;;;;;;;5009635;28;19917;-79
2024/03/19 04:55:41;;;;;;;;;;;;;;;;;;5012639;28;21355;-80
2024/03/19 04:58:06;;;;;;;;;;;;;;;;;;5010042;28;19924;-79
2024/03/19 05:00:31;;;;;;;;;;;;;;;;;;4997497;28;19921;-79
2024/03/19 05:02:57;;;;;;;;;;;;;;;;;;5013169;28;20012;-80
2024/03/19 05:05:22;;;;;;;;;;;;;;;;;;4991477;28;19979;-80
2024/03/19 05:07:47;;;;;;;;;;;;;;;;;;5011949;28;20376;-80
2024/03/19 05:10:13;;;;;;;;;;;;;;;;;;4991947;28;19917;-80
2024/03/19 05:12:38;;;;;;;;;;;;;;;;;;4989867;28;20379;-78
2024/03/19 05:15:06;;;;;;;;;;;;;;;;;;5012225;28;20626;-80
2024/03/19 05:17:31;;;;;;;;;;;;;;;;;;4989021;28;20238;-79
2024/03/19 05:19:59;;;;;;;;;;;;;;;;;;4989254;28;19963;-80
2024/03/19 05:22:24;;;;;;;;;;;;;;;;;;5011318;28;19925;-79
2024/03/19 05:24:50;;;;;;;;;;;;;;;;;;4996964;28;19960;-79
2024/03/19 05:27:15;;;;;;;;;;;;;;;;;;4995273;28;19925;-80
2024/03/19 05:29:40;;;;;;;;;;;;;;;;;;5008970;28;19921;-79
2024/03/19 05:32:05;;;;;;;;;;;;;;;;;;4995427;28;19922;-80
2024/03/19 05:34:31;;;;;;;;;;;;;;;;;;4993321;28;20004;-78
2024/03/19 05:36:56;;;;;;;;;;;;;;;;;;4996512;28;19917;-78
2024/03/19 05:39:21;;;;;;;;;;;;;;;;;;5013190;28;20158;-78
2024/03/19 05:41:47;;;;;;;;;;;;;;;;;;4992147;28;20007;-75
2024/03/19 05:44:12;;;;;;;;;;;;;;;;;;5014311;28;19917;-78
2024/03/19 05:46:40;;;;;;;;;;;;;;;;;;4982217;28;19921;-79
2024/03/19 05:49:05;;;;;;;;;;;;;;;;;;5000738;28;19925;-77
2024/03/19 05:51:31;;;;;;;;;;;;;;;;;;5015504;28;20005;-77
2024/03/19 05:53:56;;;;;;;;;;;;;;;;;;5012684;28;19921;-78
2024/03/19 05:59:38;;;;;;;;;;;;;;;;;;5014011;28;19928;-78
2024/03/19 06:02:06;;;;;;;;;;;;;;;;;;5013370;28;19917;-78
2024/03/19 06:04:32;;;;;;;;;;;;;;;;;;5012783;28;19917;-78
2024/03/19 06:06:57;;;;;;;;;;;;;;;;;;4996085;28;20376;-79
2024/03/19 06:09:22;;;;;;;;;;;;;;;;;;4992421;28;19978;-80
2024/03/19 06:11:47;;;;;;;;;;;;;;;;;;4990682;28;19979;-79
2024/03/19 06:14:13;;;;;;;;;;;;;;;;;;5009173;28;19929;-78
2024/03/19 06:16:38;;;;;;;;;;;;;;;;;;4992006;28;19917;-78
2024/03/19 06:19:03;;;;;;;;;;;;;;;;;;5011447;28;19997;-78
2024/03/19 06:21:28;;;;;;;;;;;;;;;;;;4989110;28;20028;-79
2024/03/19 06:23:54;;;;;;;;;;;;;;;;;;5009410;28;19923;-77
2024/03/19 06:26:19;;;;;;;;;;;;;;;;;;4991484;28;20284;-77
2024/03/19 06:28:45;;;;;;;;;;;;;;;;;;5012033;28;20385;-77
2024/03/19 06:31:10;;;;;;;;;;;;;;;;;;4991821;28;19964;-76
2024/03/19 06:33:36;;;;;;;;;;;;;;;;;;4988721;28;20353;-77
2024/03/19 06:36:01;;;;;;;;;;;;;;;;;;4989391;28;20031;-77
2024/03/19 06:38:27;;;;;;;;;;;;;;;;;;5011546;28;19923;-79
2024/03/19 06:44:08;;;;;;;;;;;;;;;;;;5006277;28;20032;-76
2024/03/19 06:46:34;;;;;;;;;;;;;;;;;;5009676;28;20437;-77
2024/03/19 06:48:59;;;;;;;;;;;;;;;;;;4988079;28;19916;-77
2024/03/19 06:51:26;;;;;;;;;;;;;;;;;;5008281;28;19932;-77
2024/03/19 06:53:51;;;;;;;;;;;;;;;;;;4990694;28;19948;-77
2024/03/19 06:56:16;;;;;;;;;;;;;;;;;;5009120;28;20155;-76
2024/03/19 06:58:44;;;;;;;;;;;;;;;;;;5010863;28;19917;-77
2024/03/19 07:01:10;;;;;;;;;;;;;;;;;;4989596;28;19917;-77
2024/03/19 07:03:35;;;;;;;;;;;;;;;;;;5005292;28;19959;-76
2024/03/19 07:06:01;;;;;;;;;;;;;;;;;;5010593;28;20004;-77
2024/03/19 07:08:26;;;;;;;;;;;;;;;;;;4986795;28;19925;-76
2024/03/19 07:10:51;;;;;;;;;;;;;;;;;;5010650;28;19920;-77
2024/03/19 07:13:19;;;;;;;;;;;;;;;;;;5010854;28;19996;-77
2024/03/19 07:15:45;;;;;;;;;;;;;;;;;;5008088;28;19925;-77
2024/03/19 07:21:27;;;;;;;;;;;;;;;;;;5009770;28;19979;-76
2024/03/19 07:23:52;;;;;;;;;;;;;;;;;;4989915;28;19968;-77
2024/03/19 07:26:17;;;;;;;;;;;;;;;;;;4986696;28;19928;-76
2024/03/19 07:28:43;;;;;;;;;;;;;;;;;;5009788;28;20012;-77
2024/03/19 07:31:08;;;;;;;;;;;;;;;;;;4993377;28;20347;-78
2024/03/19 07:33:33;;;;;;;;;;;;;;;;;;5014314;28;19917;-76
2024/03/19 07:35:59;;;;;;;;;;;;;;;;;;5013951;28;20134;-77
2024/03/19 07:38:24;;;;;;;;;;;;;;;;;;5011150;28;19921;-77
2024/03/19 07:40:49;;;;;;;;;;;;;;;;;;4979063;28;20015;-76
2024/03/19 07:43:18;;;;;;;;;;;;;;;;;;4992784;28;19992;-79
2024/03/19 07:45:43;;;;;;;;;;;;;;;;;;5014783;28;19921;-77
2024/03/19 07:48:12;;;;;;;;;;;;;;;;;;4992891;28;20912;-77
2024/03/19 07:50:38;;;;;;;;;;;;;;;;;;4993632;28;19928;-76
2024/03/19 07:53:04;;;;;;;;;;;;;;;;;;5013478;28;19921;-76
2024/03/19 07:55:29;;;;;;;;;;;;;;;;;;5016253;28;19968;-76
2024/03/19 07:57:55;;;;;;;;;;;;;;;;;;4995769;28;19917;-77
2024/03/19 08:00:20;;;;;;;;;;;;;;;;;;5014022;28;21012;-77
2024/03/19 08:02:46;;;;;;;;;;;;;;;;;;5014382;28;19984;-78
2024/03/19 08:05:13;;;;;;;;;;;;;;;;;;5016424;28;20321;-77
2024/03/19 08:07:43;;;;;;;;;;;;;;;;;;4990973;28;19924;-77
2024/03/19 08:10:09;;;;;;;;;;;;;;;;;;5013536;28;19928;-77
2024/03/19 08:12:35;;;;;;;;;;;;;;;;;;4999857;28;19928;-78
2024/03/19 08:15:02;;;;;;;;;;;;;;;;;;4998874;28;19925;-78
2024/03/19 08:17:28;;;;;;;;;;;;;;;;;;4997175;28;19923;-78
2024/03/19 08:19:53;;;;;;;;;;;;;;;;;;4984811;28;19920;-77
2024/03/19 08:22:18;;;;;;;;;;;;;;;;;;5002089;28;19917;-77
2024/03/19 08:24:43;;;;;;;;;;;;;;;;;;4996976;28;19924;-77
2024/03/19 08:27:09;;;;;;;;;;;;;;;;;;5016223;28;19963;-79
2024/03/19 08:29:34;;;;;;;;;;;;;;;;;;4999597;28;19928;-79
2024/03/19 08:31:59;;;;;;;;;;;;;;;;;;5016458;28;19928;-79
2024/03/19 08:34:25;;;;;;;;;;;;;;;;;;5016076;28;19921;-80
2024/03/19 08:36:50;;;;;;;;;;;;;;;;;;5018767;28;19968;-78
2024/03/19 08:39:24;;;;;;;;;;;;;;;;;;4998560;28;19959;-77
2024/03/19 08:41:50;;;;;;;;;;;;;;;;;;5016176;28;20047;-80
2024/03/19 08:47:06;;;;;;;;;;;;;;;;;;4996169;28;19917;-77
2024/03/19 08:49:31;;;;;;;;;;;;;;;;;;5017491;28;19925;-79
2024/03/19 08:55:14;;;;;;;;;;;;;;;;;;5015989;28;20040;-78
2024/03/19 08:57:39;;;;;;;;;;;;;;;;;;5001365;28;20582;-79
2024/03/19 09:00:10;;;;;;;;;;;;;;;;;;5017988;28;20368;-79
2024/03/19 09:02:36;;;;;;;;;;;;;;;;;;4999418;28;19936;-77
2024/03/19 09:05:01;;;;;;;;;;;;;;;;;;5003235;28;20365;-77
2024/03/19 09:07:26;;;;;;;;;;;;;;;;;;4998977;28;19917;-78
2024/03/19 09:09:52;;;;;;;;;;;;;;;;;;4995285;28;20452;-78
2024/03/19 09:12:17;;;;;;;;;;;;;;;;;;4987469;28;20230;-79
2024/03/19 09:14:43;;;;;;;;;;;;;;;;;;5016640;28;19978;-76
2024/03/19 09:17:08;;;;;;;;;;;;;;;;;;5000566;28;19917;-79
2024/03/19 09:19:33;;;;;;;;;;;;;;;;;;5018829;28;20269;-79
2024/03/19 09:21:58;;;;;;;;;;;;;;;;;;5005743;28;19921;-77
2024/03/19 09:24:24;;;;;;;;;;;;;;;;;;5023775;28;20269;-78
2024/03/19 09:26:49;;;;;;;;;;;;;;;;;;5020054;28;20051;-77
2024/03/19 09:29:14;;;;;;;;;;;;;;;;;;4998857;28;19924;-77
2024/03/19 09:31:40;;;;;;;;;;;;;;;;;;5019300;28;19921;-78
2024/03/19 09:34:05;;;;;;;;;;;;;;;;;;4981976;28;20376;-77
2024/03/19 09:36:30;;;;;;;;;;;;;;;;;;5008423;28;19924;-77
2024/03/19 09:38:55;;;;;;;;;;;;;;;;;;5027658;28;19986;-77
2024/03/19 09:41:23;;;;;;;;;;;;;;;;;;5024557;28;19952;-77
2024/03/19 09:43:49;;;;;;;;;;;;;;;;;;5021310;28;19963;-77
2024/03/19 09:49:34;;;;;;;;;;;;;;;;;;5026216;28;19923;-77
2024/03/19 09:51:59;;;;;;;;;;;;;;;;;;5005742;28;20839;-78
2024/03/19 09:54:25;;;;;;;;;;;;;;;;;;5008204;28;19913;-78
2024/03/19 09:56:50;;;;;;;;;;;;;;;;;;5007748;28;19928;-80
2024/03/19 09:59:15;;;;;;;;;;;;;;;;;;5009757;28;19917;-78
2024/03/19 10:01:41;;;;;;;;;;;;;;;;;;5008023;28;20357;-80
2024/03/19 10:04:06;;;;;;;;;;;;;;;;;;5006000;28;20408;-80
2024/03/19 10:06:31;;;;;;;;;;;;;;;;;;5002698;28;19921;-79
2024/03/19 10:08:56;;;;;;;;;;;;;;;;;;5000602;28;20105;-81
2024/03/19 10:11:22;;;;;;;;;;;;;;;;;;5021188;28;20381;-79
2024/03/19 10:13:48;;;;;;;;;;;;;;;;;;5020055;28;19976;-80
2024/03/19 10:16:14;;;;;;;;;;;;;;;;;;5001360;28;19921;-80
2024/03/19 10:18:39;;;;;;;;;;;;;;;;;;4999385;28;20315;-78
2024/03/19 10:21:04;;;;;;;;;;;;;;;;;;5018179;28;20032;-78
2024/03/19 10:23:30;;;;;;;;;;;;;;;;;;5016475;28;19917;-78
2024/03/19 10:25:58;;;;;;;;;;;;;;;;;;4994048;28;20361;-81
2024/03/19 10:28:23;;;;;;;;;;;;;;;;;;4994666;28;19917;-81
2024/03/19 10:30:49;;;;;;;;;;;;;;;;;;5017678;28;19917;-80
2024/03/19 10:33:14;;;;;;;;;;;;;;;;;;5013676;28;20592;-79
2024/03/19 10:35:39;;;;;;;;;;;;;;;;;;4993660;28;20324;-79
2024/03/19 10:38:08;;;;;;;;;;;;;;;;;;4991516;28;20375;-79
2024/03/19 10:40:36;;;;;;;;;;;;;;;;;;4998702;28;19921;-79
2024/03/19 10:43:04;;;;;;;;;;;;;;;;;;5011668;28;20396;-78
2024/03/19 10:45:30;;;;;;;;;;;;;;;;;;5017393;28;19984;-81
2024/03/19 10:47:55;;;;;;;;;;;;;;;;;;4997922;28;19940;-78
2024/03/19 10:50:21;;;;;;;;;;;;;;;;;;5015627;28;20349;-80
2024/03/19 10:52:47;;;;;;;;;;;;;;;;;;4994436;28;19917;-78
2024/03/19 10:55:15;;;;;;;;;;;;;;;;;;5015181;28;19921;-77
2024/03/19 10:57:41;;;;;;;;;;;;;;;;;;4988573;28;20295;-78
2024/03/19 11:00:12;;;;;;;;;;;;;;;;;;5012908;28;20341;-76
2024/03/19 11:02:40;;;;;;;;;;;;;;;;;;4993655;28;19953;-79
2024/03/19 11:05:05;;;;;;;;;;;;;;;;;;5009334;28;20074;-79
2024/03/19 11:07:30;;;;;;;;;;;;;;;;;;4992879;28;19924;-80
2024/03/19 11:09:55;;;;;;;;;;;;;;;;;;5013141;28;20040;-79
2024/03/19 11:12:22;;;;;;;;;;;;;;;;;;5013437;28;19956;-80
2024/03/19 11:14:48;;;;;;;;;;;;;;;;;;5014748;28;19921;-78
2024/03/19 11:17:13;;;;;;;;;;;;;;;;;;5014220;28;19927;-80
2024/03/19 11:19:38;;;;;;;;;;;;;;;;;;5000013;28;19921;-80
2024/03/19 11:22:04;;;;;;;;;;;;;;;;;;5009089;28;20004;-81
2024/03/19 11:24:29;;;;;;;;;;;;;;;;;;5013373;28;19921;-81
2024/03/19 11:26:54;;;;;;;;;;;;;;;;;;5017200;28;19928;-80
2024/03/19 11:29:19;;;;;;;;;;;;;;;;;;5007506;28;19959;-81
2024/03/19 11:31:45;;;;;;;;;;;;;;;;;;4994688;28;19947;-78
2024/03/19 11:34:10;;;;;;;;;;;;;;;;;;5009578;28;20316;-78
2024/03/19 11:36:38;;;;;;;;;;;;;;;;;;4997057;28;20640;-78
2024/03/19 11:39:07;;;;;;;;;;;;;;;;;;4996085;28;20005;-79
2024/03/19 11:41:32;;;;;;;;;;;;;;;;;;5018870;28;19922;-76
2024/03/19 11:43:57;;;;;;;;;;;;;;;;;;4983240;28;20003;-79
2024/03/19 11:46:22;;;;;;;;;;;;;;;;;;5017209;28;19920;-78
2024/03/19 11:48:48;;;;;;;;;;;;;;;;;;4994535;28;19921;-79
2024/03/19 11:54:30;;;;;;;;;;;;;;;;;;5015277;28;19923;-79
2024/03/19 11:56:56;;;;;;;;;;;;;;;;;;5015841;28;20285;-79
2024/03/19 11:59:22;;;;;;;;;;;;;;;;;;4999122;28;19925;-78
2024/03/19 12:01:49;;;;;;;;;;;;;;;;;;4990205;28;19920;-79
2024/03/19 12:04:14;;;;;;;;;;;;;;;;;;5016339;28;20369;-78
2024/03/19 12:06:40;;;;;;;;;;;;;;;;;;4995366;28;19924;-77
2024/03/19 12:09:05;;;;;;;;;;;;;;;;;;5013879;28;20269;-79
2024/03/19 12:11:32;;;;;;;;;;;;;;;;;;5014773;28;19969;-79
2024/03/19 12:13:58;;;;;;;;;;;;;;;;;;5013771;28;20547;-79
2024/03/19 12:16:25;;;;;;;;;;;;;;;;;;5016173;28;19939;-76
2024/03/19 12:18:51;;;;;;;;;;;;;;;;;;5013293;28;19921;-78
2024/03/19 12:21:16;;;;;;;;;;;;;;;;;;4999049;28;20073;-78
2024/03/19 12:23:41;;;;;;;;;;;;;;;;;;5007767;28;20043;-78
2024/03/19 12:26:09;;;;;;;;;;;;;;;;;;5011063;28;19921;-76
2024/03/19 12:28:35;;;;;;;;;;;;;;;;;;4994700;28;20183;-76
2024/03/19 12:31:01;;;;;;;;;;;;;;;;;;5006849;28;19979;-76
2024/03/19 12:33:40;;;;;;;;;;;;;;;;;;5013764;28;20428;-76
2024/03/19 12:36:06;;;;;;;;;;;;;;;;;;5007148;28;20465;-76
2024/03/19 12:38:31;;;;;;;;;;;;;;;;;;5014134;28;19925;-77
2024/03/19 12:40:59;;;;;;;;;;;;;;;;;;5014996;28;19921;-77
2024/03/19 12:43:24;;;;;;;;;;;;;;;;;;5014009;28;21043;-77
2024/03/19 12:45:49;;;;;;;;;;;;;;;;;;4990061;28;19918;-76
2024/03/19 12:48:17;;;;;;;;;;;;;;;;;;5013317;28;19917;-76
2024/03/19 12:50:43;;;;;;;;;;;;;;;;;;5013947;28;19921;-78
2024/03/19 12:53:08;;;;;;;;;;;;;;;;;;4995488;28;20004;-78
2024/03/19 12:55:36;;;;;;;;;;;;;;;;;;4997731;28;19921;-77
2024/03/19 12:58:01;;;;;;;;;;;;;;;;;;5015049;28;19921;-76
2024/03/19 13:00:27;;;;;;;;;;;;;;;;;;4998170;28;20494;-74
2024/03/19 13:02:54;;;;;;;;;;;;;;;;;;5013954;28;20340;-79
2024/03/19 13:05:22;;;;;;;;;;;;;;;;;;5009750;28;19970;-75
2024/03/19 13:07:53;;;;;;;;;;;;;;;;;;4997592;28;19952;-77
2024/03/19 13:10:21;;;;;;;;;;;;;;;;;;5004836;28;20321;-75
2024/03/19 13:12:46;;;;;;;;;;;;;;;;;;5004402;28;19929;-75
2024/03/19 13:15:12;;;;;;;;;;;;;;;;;;5005147;28;19971;-75
2024/03/19 13:17:37;;;;;;;;;;;;;;;;;;5011160;28;20348;-76
2024/03/19 13:20:04;;;;;;;;;;;;;;;;;;5012037;28;19917;-75
2024/03/19 13:22:29;;;;;;;;;;;;;;;;;;5005917;28;19996;-76
2024/03/19 13:24:54;;;;;;;;;;;;;;;;;;5009761;28;19925;-75
2024/03/19 13:27:20;;;;;;;;;;;;;;;;;;5010211;28;20047;-76
2024/03/19 13:29:46;;;;;;;;;;;;;;;;;;4991913;28;20486;-78
2024/03/19 13:32:12;;;;;;;;;;;;;;;;;;5011463;28;20273;-74
2024/03/19 13:34:37;;;;;;;;;;;;;;;;;;5005218;28;19960;-74
2024/03/19 13:39:52;;;;;;;;;;;;;;;;;;5012732;28;19921;-78
2024/03/19 13:42:17;;;;;;;;;;;;;;;;;;4994146;28;19920;-76
2024/03/19 13:44:43;;;;;;;;;;;;;;;;;;5012197;28;20478;-76
2024/03/19 13:47:08;;;;;;;;;;;;;;;;;;5010541;28;20635;-77
2024/03/19 13:49:34;;;;;;;;;;;;;;;;;;4994800;28;20376;-76
2024/03/19 13:51:59;;;;;;;;;;;;;;;;;;4993871;28;19922;-77
2024/03/19 13:54:24;;;;;;;;;;;;;;;;;;5008905;28;19921;-76
2024/03/19 13:56:50;;;;;;;;;;;;;;;;;;5011284;28;19924;-76
2024/03/19 13:59:15;;;;;;;;;;;;;;;;;;4973984;28;19921;-75
2024/03/19 14:01:41;;;;;;;;;;;;;;;;;;5003733;28;19914;-75
2024/03/19 14:04:06;;;;;;;;;;;;;;;;;;5012367;28;19921;-74
2024/03/19 14:06:31;;;;;;;;;;;;;;;;;;5011837;28;19991;-75
2024/03/19 14:08:57;;;;;;;;;;;;;;;;;;4994442;28;20233;-75
2024/03/19 14:11:24;;;;;;;;;;;;;;;;;;4993707;28;19923;-75
2024/03/19 14:13:50;;;;;;;;;;;;;;;;;;5003608;28;19929;-73
2024/03/19 14:16:16;;;;;;;;;;;;;;;;;;4966581;28;19918;-76
2024/03/19 14:21:35;;;;;;;;;;;;;;;;;;5010642;28;19921;-74
2024/03/19 14:24:01;;;;;;;;;;;;;;;;;;4994059;28;19917;-76
2024/03/19 14:26:26;;;;;;;;;;;;;;;;;;5011173;28;19971;-76
2024/03/19 14:28:54;;;;;;;;;;;;;;;;;;5007278;28;20332;-76
2024/03/19 14:31:19;;;;;;;;;;;;;;;;;;5009128;28;19917;-78
2024/03/19 14:33:44;;;;;;;;;;;;;;;;;;5013113;28;20364;-78
2024/03/19 14:36:10;;;;;;;;;;;;;;;;;;4999397;28;19928;-76
2024/03/19 14:38:36;;;;;;;;;;;;;;;;;;5002833;28;19932;-78
2024/03/19 14:41:01;;;;;;;;;;;;;;;;;;4996915;28;19917;-75
2024/03/19 14:46:43;;;;;;;;;;;;;;;;;;5014359;28;19924;-76
2024/03/19 14:49:08;;;;;;;;;;;;;;;;;;5016371;28;20314;-77
2024/03/19 14:51:34;;;;;;;;;;;;;;;;;;5003204;28;19921;-74
2024/03/19 14:53:59;;;;;;;;;;;;;;;;;;5001882;28;19924;-77
2024/03/19 14:56:24;;;;;;;;;;;;;;;;;;5016226;28;19913;-77
2024/03/19 14:58:49;;;;;;;;;;;;;;;;;;5013495;28;20828;-75
2024/03/19 15:01:21;;;;;;;;;;;;;;;;;;5017506;28;20003;-75
2024/03/19 15:03:46;;;;;;;;;;;;;;;;;;5011985;28;19960;-74
2024/03/19 15:06:14;;;;;;;;;;;;;;;;;;5016325;28;20405;-75
2024/03/19 15:08:42;;;;;;;;;;;;;;;;;;5002453;28;19924;-75
2024/03/19 15:11:08;;;;;;;;;;;;;;;;;;5017070;28;19921;-76
2024/03/19 15:13:33;;;;;;;;;;;;;;;;;;5015224;28;19933;-76
2024/03/19 15:15:58;;;;;;;;;;;;;;;;;;5012164;28;20500;-76
2024/03/19 15:18:24;;;;;;;;;;;;;;;;;;4984067;28;20003;-75
2024/03/19 15:20:49;;;;;;;;;;;;;;;;;;5009740;28;19921;-75
2024/03/19 15:23:15;;;;;;;;;;;;;;;;;;5010321;28;21081;-75
2024/03/19 15:25:42;;;;;;;;;;;;;;;;;;4991434;28;19995;-76
2024/03/19 15:28:08;;;;;;;;;;;;;;;;;;4993687;28;19925;-75
2024/03/19 15:30:33;;;;;;;;;;;;;;;;;;5011424;28;20479;-76
2024/03/19 15:32:59;;;;;;;;;;;;;;;;;;5011630;28;20297;-75
2024/03/19 15:35:24;;;;;;;;;;;;;;;;;;4976274;28;20293;-75
2024/03/19 15:37:52;;;;;;;;;;;;;;;;;;4991732;28;20439;-75
2024/03/19 15:40:17;;;;;;;;;;;;;;;;;;5013363;28;19935;-75
2024/03/19 15:42:43;;;;;;;;;;;;;;;;;;5007547;28;19917;-77
2024/03/19 15:48:25;;;;;;;;;;;;;;;;;;5010786;28;19940;-76
2024/03/19 15:50:53;;;;;;;;;;;;;;;;;;5011237;28;19921;-75
2024/03/19 15:53:19;;;;;;;;;;;;;;;;;;5009302;28;20336;-76
2024/03/19 15:55:44;;;;;;;;;;;;;;;;;;5012711;28;20163;-75
2024/03/19 15:58:12;;;;;;;;;;;;;;;;;;4988951;28;19921;-76
2024/03/19 16:03:53;;;;;;;;;;;;;;;;;;5010505;28;19929;-76
2024/03/19 16:06:18;;;;;;;;;;;;;;;;;;5011651;28;19917;-75
2024/03/19 16:08:43;;;;;;;;;;;;;;;;;;4968253;28;19921;-75
2024/03/19 16:11:14;;;;;;;;;;;;;;;;;;5011041;28;19917;-78
2024/03/19 16:13:40;;;;;;;;;;;;;;;;;;4975187;28;19929;-75
2024/03/19 16:16:05;;;;;;;;;;;;;;;;;;4990269;28;19979;-76
2024/03/19 16:18:30;;;;;;;;;;;;;;;;;;4993194;28;20061;-77
2024/03/19 16:20:57;;;;;;;;;;;;;;;;;;5010327;28;20312;-76
2024/03/19 16:23:24;;;;;;;;;;;;;;;;;;5010333;28;21008;-75
2024/03/19 16:25:50;;;;;;;;;;;;;;;;;;4989005;28;19926;-76
2024/03/19 16:28:15;;;;;;;;;;;;;;;;;;4993625;28;20325;-76
2024/03/19 16:30:40;;;;;;;;;;;;;;;;;;5011088;28;20170;-76
2024/03/19 16:33:06;;;;;;;;;;;;;;;;;;4993603;28;20124;-77
2024/03/19 16:35:36;;;;;;;;;;;;;;;;;;5008000;28;19917;-75
2024/03/19 16:38:02;;;;;;;;;;;;;;;;;;4971576;28;19922;-75
2024/03/19 16:40:30;;;;;;;;;;;;;;;;;;4993457;28;20019;-77
2024/03/19 16:42:56;;;;;;;;;;;;;;;;;;4991285;28;20027;-75
2024/03/19 16:45:21;;;;;;;;;;;;;;;;;;4991474;28;20378;-75
2024/03/19 16:47:50;;;;;;;;;;;;;;;;;;5009568;28;21589;-76
2024/03/19 16:50:18;;;;;;;;;;;;;;;;;;4983873;28;19921;-75
2024/03/19 16:52:43;;;;;;;;;;;;;;;;;;4988320;28;19944;-75
2024/03/19 16:55:09;;;;;;;;;;;;;;;;;;5005308;28;19921;-75
2024/03/19 16:57:37;;;;;;;;;;;;;;;;;;5010585;28;19921;-75
2024/03/19 17:00:02;;;;;;;;;;;;;;;;;;4990425;28;19952;-76
2024/03/19 17:02:27;;;;;;;;;;;;;;;;;;5009215;28;20376;-76
2024/03/19 17:04:53;;;;;;;;;;;;;;;;;;5009247;28;19967;-75
2024/03/19 17:07:18;;;;;;;;;;;;;;;;;;4990870;28;20012;-75
2024/03/19 17:09:44;;;;;;;;;;;;;;;;;;4995605;28;19967;-74
2024/03/19 17:12:09;;;;;;;;;;;;;;;;;;5008772;28;20023;-76
2024/03/19 17:14:35;;;;;;;;;;;;;;;;;;5009658;28;19929;-75
2024/03/19 17:17:00;;;;;;;;;;;;;;;;;;4992476;28;19924;-75